Hornchurch, United Kingdom
Current Conditions -  °F | °C
As of 11:50 AM on Tuesday 21 Oct 2014 (Local Time) from EGLC Reporting Station
Scattered Clouds Scattered Clouds  
Wind Chill: 55°   Ceiling: Unl
Heat Index: 55°   Visibility: 6mi
Dew Point: 39°   Wind: 31mph
Humidity: 54%   Direction: 280°W
Pressure: 29.65"   Gusts: NA
Location:  51.56°N, 0.22°E
Report Text: EGLC 211050Z 28027KT 9999 SCT048 13/04 Q1004
Loading
Personal Weather Stations






























Interactive Weather Map
Tropical Storm Tracking
New forecast layout! Learn more

10-Day Weather Forecast

Advertisements
Track Severe Weather on mobile